Airport View

Enter AWOS ICAO identifier for current METAR.

ex. KFNL

KVCV 112045Z 33005KT 10SM SKC A3019

11 Dec 2019 21:53

Frequency: 135.475

Phone: 760-246-3635

Other Area AWOS: KGXA - KSBD - KEDW - K9L2

TAF KEDW 111400Z 1114/1220 VRB06KT 9999 SCT250 QNH3013INS BECMG 1123/1124 VRB06KT 9999 FEW050 SCT200 QNH3015INS BECMG 1205/1206 VRB06KT 9999 SCT050 BKN200 QNH3024INS BECMG 1211/1212 VRB06KT 9999 FEW050 SCT200 QNH3024INS TX15/1123Z TN00/1114Z